createdAt,value
2019-05-20T00:02:27.523Z,10.73
2019-05-20T00:04:48.761Z,10.73
2019-05-20T00:07:13.233Z,10.63
2019-05-20T00:09:37.783Z,11.40
2019-05-20T00:12:02.264Z,10.50
2019-05-20T00:14:26.758Z,11.70
2019-05-20T00:16:51.232Z,11.20
2019-05-20T00:19:15.681Z,10.63
2019-05-20T00:21:40.215Z,10.60
2019-05-20T00:24:04.804Z,11.77
2019-05-20T00:26:29.338Z,11.10
2019-05-20T00:28:53.804Z,10.47
2019-05-20T00:31:18.272Z,10.53
2019-05-20T00:33:42.748Z,10.30
2019-05-20T00:36:07.305Z,10.73
2019-05-20T00:38:31.803Z,10.83
2019-05-20T00:40:56.228Z,10.90
2019-05-20T00:43:20.689Z,10.50
2019-05-20T00:45:45.166Z,10.40
2019-05-20T00:48:09.606Z,10.13
2019-05-20T00:50:35.034Z,10.90
2019-05-20T00:52:59.615Z,10.40
2019-05-20T00:55:27.134Z,10.73
2019-05-20T00:57:51.665Z,10.73
2019-05-20T01:00:16.352Z,10.27
2019-05-20T01:02:55.774Z,10.43
2019-05-20T01:05:07.125Z,10.53
2019-05-20T01:07:31.621Z,11.07
2019-05-20T01:09:56.140Z,11.47
2019-05-20T01:12:20.688Z,11.17
2019-05-20T01:14:45.198Z,11.40
2019-05-20T01:17:09.683Z,11.43
2019-05-20T01:19:34.225Z,11.57
2019-05-20T01:21:58.723Z,11.33
2019-05-20T01:24:23.231Z,11.20
2019-05-20T01:26:47.864Z,11.37
2019-05-20T01:29:12.342Z,11.63
2019-05-20T01:31:36.836Z,10.97
2019-05-20T01:34:01.282Z,11.60
2019-05-20T01:36:25.821Z,11.50
2019-05-20T01:38:50.279Z,11.23
2019-05-20T01:41:14.873Z,11.30
2019-05-20T01:43:39.357Z,11.80
2019-05-20T01:46:03.946Z,11.43
2019-05-20T01:48:28.436Z,11.77
2019-05-20T01:50:52.905Z,11.27
2019-05-20T01:53:17.462Z,11.07
2019-05-20T01:55:41.920Z,11.73
2019-05-20T01:58:06.405Z,11.57
2019-05-20T02:00:30.859Z,10.93
2019-05-20T02:02:55.521Z,12.20
2019-05-20T02:05:20.042Z,11.70
2019-05-20T02:07:44.652Z,11.37
2019-05-20T02:10:09.695Z,12.27
2019-05-20T02:12:34.206Z,12.10
2019-05-20T02:15:06.170Z,12.03
2019-05-20T02:17:30.720Z,11.97
2019-05-20T02:19:55.236Z,11.40
2019-05-20T02:22:19.796Z,11.47
2019-05-20T02:24:44.310Z,11.37
2019-05-20T02:27:08.919Z,11.50
2019-05-20T02:29:33.480Z,11.93
2019-05-20T02:31:57.936Z,11.97
2019-05-20T02:34:22.448Z,11.50
2019-05-20T02:36:46.956Z,11.93
2019-05-20T02:39:11.537Z,12.30
2019-05-20T02:41:36.304Z,11.80
2019-05-20T02:44:00.848Z,11.67
2019-05-20T02:46:25.448Z,12.20
2019-05-20T02:48:50.008Z,12.03
2019-05-20T02:51:16.165Z,12.20
2019-05-20T02:53:40.649Z,11.70
2019-05-20T02:56:05.242Z,13.13
2019-05-20T02:58:29.763Z,12.43
2019-05-20T03:00:54.392Z,12.00
2019-05-20T03:03:18.974Z,11.70
2019-05-20T03:05:43.468Z,12.10
2019-05-20T03:08:07.947Z,12.27
2019-05-20T03:10:32.490Z,11.87
2019-05-20T03:12:56.944Z,12.03
2019-05-20T03:15:21.507Z,12.90
2019-05-20T03:17:53.906Z,11.83
2019-05-20T03:20:18.513Z,12.63
2019-05-20T03:22:43.064Z,12.20
2019-05-20T03:25:08.387Z,12.10
2019-05-20T03:27:32.959Z,13.10
2019-05-20T03:29:57.564Z,12.30
2019-05-20T03:32:22.010Z,12.40
2019-05-20T03:34:57.992Z,12.40
2019-05-20T03:37:12.634Z,13.20
2019-05-20T03:39:37.209Z,12.50
2019-05-20T03:42:01.676Z,12.53
2019-05-20T03:44:26.154Z,13.10
2019-05-20T03:46:50.613Z,13.60
2019-05-20T03:49:15.236Z,12.80
2019-05-20T03:51:39.787Z,12.80
2019-05-20T03:54:04.346Z,12.50
2019-05-20T03:56:28.784Z,12.40
2019-05-20T03:58:53.342Z,12.60
2019-05-20T04:01:17.828Z,13.33
2019-05-20T04:03:42.281Z,13.80
2019-05-20T04:06:06.820Z,13.00
2019-05-20T04:08:31.280Z,13.57
2019-05-20T04:10:55.903Z,13.10
2019-05-20T04:13:20.517Z,14.10
2019-05-20T04:15:45.000Z,13.70
2019-05-20T04:18:09.507Z,14.03
2019-05-20T04:20:34.072Z,13.20
2019-05-20T04:22:58.543Z,14.83
2019-05-20T04:25:23.045Z,15.70
2019-05-20T04:27:47.636Z,14.83
2019-05-20T04:30:12.576Z,14.57
2019-05-20T04:32:37.168Z,14.60
2019-05-20T04:35:20.495Z,14.60
2019-05-20T04:37:28.610Z,14.33
2019-05-20T04:39:53.178Z,14.73
2019-05-20T04:42:17.635Z,15.47
2019-05-20T04:44:42.164Z,14.73
2019-05-20T04:47:06.842Z,15.63
2019-05-20T04:49:31.395Z,15.33
2019-05-20T04:51:55.961Z,15.67
2019-05-20T04:54:20.531Z,16.63
2019-05-20T04:56:45.105Z,16.23
2019-05-20T04:59:09.669Z,16.30
2019-05-20T05:01:34.151Z,15.73
2019-05-20T05:03:59.392Z,16.47
2019-05-20T05:06:23.917Z,16.60
2019-05-20T05:08:48.439Z,16.80
2019-05-20T05:11:13.124Z,17.67
2019-05-20T05:13:37.646Z,16.97
2019-05-20T05:16:02.263Z,18.00
2019-05-20T05:18:27.172Z,17.90
2019-05-20T05:20:51.904Z,17.90
2019-05-20T05:23:17.002Z,17.13
2019-05-20T05:25:41.626Z,17.83
2019-05-20T05:28:06.216Z,17.50
2019-05-20T05:30:30.837Z,17.13
2019-05-20T05:32:55.421Z,17.50
2019-05-20T05:35:20.215Z,18.13
2019-05-20T05:37:45.049Z,19.57
2019-05-20T05:40:09.773Z,19.80
2019-05-20T05:42:34.237Z,19.10
2019-05-20T05:44:58.695Z,19.00
2019-05-20T05:47:23.202Z,17.43
2019-05-20T05:49:47.671Z,18.03
2019-05-20T05:52:12.134Z,17.63
2019-05-20T05:54:36.851Z,17.33
2019-05-20T05:57:01.413Z,18.17
2019-05-20T05:59:25.869Z,17.83
2019-05-20T06:01:50.362Z,18.23
2019-05-20T06:04:14.910Z,18.23
2019-05-20T06:06:39.465Z,16.47
2019-05-20T06:09:05.504Z,17.93
2019-05-20T06:11:29.986Z,17.53
2019-05-20T06:13:54.443Z,18.47
2019-05-20T06:16:35.305Z,18.80
2019-05-20T06:18:45.352Z,19.23
2019-05-20T06:21:10.010Z,19.17
2019-05-20T06:23:34.473Z,18.80
2019-05-20T06:26:00.332Z,18.50
2019-05-20T06:28:24.807Z,18.63
2019-05-20T06:30:49.340Z,19.13
2019-05-20T06:33:13.955Z,16.57
2019-05-20T06:35:38.542Z,17.27
2019-05-20T06:38:04.738Z,18.83
2019-05-20T06:40:29.362Z,18.03
2019-05-20T06:42:53.835Z,18.77
2019-05-20T06:45:18.417Z,18.20
2019-05-20T06:47:42.954Z,18.13
2019-05-20T06:50:08.805Z,18.90
2019-05-20T06:52:36.113Z,19.67
2019-05-20T06:54:59.545Z,19.90
2019-05-20T06:57:24.178Z,19.23
2019-05-20T06:59:48.632Z,21.53
2019-05-20T07:02:13.135Z,18.50
2019-05-20T07:04:37.580Z,19.70
2019-05-20T07:07:02.103Z,20.07
2019-05-20T07:09:26.719Z,19.23
2019-05-20T07:11:53.097Z,19.13
2019-05-20T07:14:17.430Z,20.83
2019-05-20T07:16:41.948Z,20.00
2019-05-20T07:19:06.496Z,22.07
2019-05-20T07:21:30.955Z,20.63
2019-05-20T07:23:55.510Z,20.47
2019-05-20T07:26:19.993Z,20.97
2019-05-20T07:28:44.466Z,21.07
2019-05-20T07:31:08.926Z,19.97
2019-05-20T07:33:33.477Z,20.00
2019-05-20T07:35:58.005Z,20.57
2019-05-20T07:38:22.555Z,21.40
2019-05-20T07:40:47.094Z,20.93
2019-05-20T07:43:11.561Z,20.23
2019-05-20T07:45:36.965Z,20.23
2019-05-20T07:48:01.679Z,20.33
2019-05-20T07:50:26.767Z,19.77
2019-05-20T07:52:51.799Z,20.50
2019-05-20T07:55:16.491Z,20.87
2019-05-20T07:57:43.580Z,22.40
2019-05-20T08:00:11.049Z,21.43
2019-05-20T08:02:35.659Z,21.63
2019-05-20T08:05:00.589Z,19.87
2019-05-20T08:07:30.156Z,20.50
2019-05-20T08:09:52.292Z,20.37
2019-05-20T08:12:16.878Z,21.33
2019-05-20T08:14:41.410Z,20.80
2019-05-20T08:17:05.939Z,21.00
2019-05-20T08:19:30.500Z,23.03
2019-05-20T08:21:55.084Z,21.27
2019-05-20T08:24:19.802Z,19.93
2019-05-20T08:26:44.488Z,20.63
2019-05-20T08:29:09.237Z,20.77
2019-05-20T08:31:33.699Z,20.43
2019-05-20T08:33:58.350Z,21.17
2019-05-20T08:36:23.000Z,20.10
2019-05-20T08:38:47.781Z,20.47
2019-05-20T08:41:12.352Z,20.80
2019-05-20T08:43:36.899Z,19.90
2019-05-20T08:46:01.354Z,19.70
2019-05-20T08:48:25.875Z,19.47
2019-05-20T08:50:50.449Z,20.20
2019-05-20T08:53:14.919Z,20.67
2019-05-20T08:55:39.463Z,19.27
2019-05-20T08:58:03.950Z,19.87
2019-05-20T09:00:28.692Z,19.40
2019-05-20T09:02:53.340Z,18.77
2019-05-20T09:05:17.878Z,17.33
2019-05-20T09:07:42.392Z,17.50
2019-05-20T09:10:07.198Z,17.13
2019-05-20T09:12:31.659Z,16.67
2019-05-20T09:14:56.196Z,16.47
2019-05-20T09:17:20.735Z,16.30
2019-05-20T09:19:47.106Z,16.37
2019-05-20T09:22:11.495Z,16.40
2019-05-20T09:24:36.266Z,16.20
2019-05-20T09:27:00.909Z,14.73
2019-05-20T09:29:25.444Z,15.30
2019-05-20T09:31:50.015Z,15.73
2019-05-20T09:34:15.025Z,14.60
2019-05-20T09:36:39.469Z,14.20
2019-05-20T09:39:05.267Z,13.30
2019-05-20T09:41:29.732Z,12.27
2019-05-20T09:43:54.197Z,12.73
2019-05-20T09:46:18.743Z,13.20
2019-05-20T09:48:43.195Z,10.60
2019-05-20T09:51:07.740Z,10.07
2019-05-20T09:53:32.195Z,10.63
2019-05-20T09:55:56.649Z,16.40
2019-05-20T09:58:21.097Z,17.87
2019-05-20T10:00:46.521Z,17.30
2019-05-20T10:03:10.977Z,18.40
2019-05-20T10:05:37.351Z,18.87
2019-05-20T10:08:01.830Z,19.93
2019-05-20T10:10:26.430Z,19.47
2019-05-20T10:12:51.019Z,19.40
2019-05-20T10:15:16.136Z,19.13
2019-05-20T10:17:40.731Z,19.03
2019-05-20T10:20:09.405Z,17.83
2019-05-20T10:22:33.888Z,19.10
2019-05-20T10:24:58.351Z,18.83
2019-05-20T10:27:22.961Z,19.37
2019-05-20T10:29:47.482Z,18.80
2019-05-20T10:32:12.027Z,17.57
2019-05-20T10:34:37.619Z,18.97
2019-05-20T10:37:02.285Z,18.93
2019-05-20T10:39:26.814Z,17.20
2019-05-20T10:41:51.347Z,17.60
2019-05-20T10:44:15.819Z,16.30
2019-05-20T10:46:40.313Z,17.20
2019-05-20T10:49:04.834Z,16.80
2019-05-20T10:51:29.314Z,16.60
2019-05-20T10:53:53.886Z,15.50
2019-05-20T10:56:18.369Z,15.73
2019-05-20T10:58:42.832Z,16.80
2019-05-20T11:01:07.446Z,15.80
2019-05-20T11:03:31.959Z,16.10
2019-05-20T11:05:56.509Z,15.73
2019-05-20T11:08:21.039Z,15.77
2019-05-20T11:10:45.491Z,15.37
2019-05-20T11:13:09.966Z,13.30
2019-05-20T11:15:34.535Z,14.20
2019-05-20T11:17:59.013Z,13.23
2019-05-20T11:20:24.034Z,14.20
2019-05-20T11:22:48.585Z,13.45
2019-05-20T11:25:13.492Z,12.80
2019-05-20T11:27:37.941Z,12.73
2019-05-20T11:30:02.412Z,12.93
2019-05-20T11:32:27.303Z,12.93
2019-05-20T11:34:51.766Z,13.27
2019-05-20T11:37:16.375Z,13.43
2019-05-20T11:39:40.870Z,12.37
2019-05-20T11:42:05.407Z,12.77
2019-05-20T11:44:29.856Z,12.17
2019-05-20T11:46:54.327Z,11.73
2019-05-20T11:49:18.856Z,11.40
2019-05-20T11:51:43.336Z,11.53
2019-05-20T11:54:07.850Z,10.53
2019-05-20T11:56:32.296Z,10.33
2019-05-20T11:58:59.840Z,10.90
2019-05-20T12:01:24.346Z,11.70
2019-05-20T12:03:48.834Z,11.13
2019-05-20T12:06:13.376Z,10.08
2019-05-20T12:08:37.837Z,10.80
2019-05-20T12:11:02.286Z,10.98
2019-05-20T12:13:27.423Z,9.93
2019-05-20T12:15:51.871Z,10.07
2019-05-20T12:18:16.433Z,10.40
2019-05-20T12:20:40.986Z,10.25
2019-05-20T12:23:05.455Z,10.65
2019-05-20T12:25:29.911Z,9.58
2019-05-20T12:27:54.524Z,9.03
2019-05-20T12:30:19.327Z,9.08
2019-05-20T12:32:43.841Z,8.38
2019-05-20T12:35:08.856Z,9.25
2019-05-20T12:37:33.344Z,9.45
2019-05-20T12:40:07.080Z,8.30
2019-05-20T12:42:24.028Z,5.33
2019-05-20T12:44:48.462Z,5.00
2019-05-20T12:47:12.911Z,5.20
2019-05-20T12:49:37.547Z,7.30
2019-05-20T12:52:02.068Z,6.90
2019-05-20T12:54:26.762Z,6.10
2019-05-20T12:56:51.272Z,6.92
2019-05-20T12:59:15.917Z,6.03
2019-05-20T13:01:40.401Z,5.25
2019-05-20T13:04:05.221Z,6.30
2019-05-20T13:06:29.701Z,6.03
2019-05-20T13:08:54.283Z,6.50
2019-05-20T13:11:18.703Z,6.20
2019-05-20T13:13:43.537Z,6.47
2019-05-20T13:16:08.058Z,5.87
2019-05-20T13:18:32.596Z,6.03
2019-05-20T13:20:57.051Z,6.72
2019-05-20T13:23:21.517Z,5.92
2019-05-20T13:25:45.965Z,6.28
2019-05-20T13:28:10.421Z,6.05
2019-05-20T13:30:34.993Z,6.50
2019-05-20T13:32:59.516Z,6.37
2019-05-20T13:35:24.032Z,6.40
2019-05-20T13:37:48.527Z,6.28
2019-05-20T13:40:13.651Z,6.30
2019-05-20T13:42:38.244Z,5.53
2019-05-20T13:45:02.788Z,6.55
2019-05-20T13:47:27.315Z,6.50
2019-05-20T13:49:51.856Z,6.08
2019-05-20T13:52:16.421Z,5.80
2019-05-20T13:54:40.898Z,5.87
2019-05-20T13:57:05.437Z,5.85
2019-05-20T13:59:29.903Z,5.67
2019-05-20T14:01:54.374Z,5.45
2019-05-20T14:04:18.912Z,5.85
2019-05-20T14:06:43.468Z,6.42
2019-05-20T14:09:08.138Z,6.12
2019-05-20T14:11:34.854Z,6.08
2019-05-20T14:13:58.861Z,6.70
2019-05-20T14:16:23.333Z,5.70
2019-05-20T14:18:47.786Z,5.70
2019-05-20T14:21:12.315Z,6.25
2019-05-20T14:23:36.762Z,6.33
2019-05-20T14:26:01.203Z,6.40
2019-05-20T14:28:25.747Z,6.05
2019-05-20T14:30:50.340Z,6.53
2019-05-20T14:33:14.855Z,6.15
2019-05-20T14:35:39.327Z,6.45
2019-05-20T14:38:03.768Z,6.58
2019-05-20T14:40:28.236Z,6.28
2019-05-20T14:42:52.692Z,7.28
2019-05-20T14:45:17.494Z,6.65
2019-05-20T14:47:41.924Z,6.90
2019-05-20T14:50:09.588Z,7.10
2019-05-20T14:52:34.034Z,7.07
2019-05-20T14:54:58.491Z,7.07
2019-05-20T14:57:23.008Z,6.70
2019-05-20T14:59:47.535Z,6.75
2019-05-20T15:02:12.091Z,6.80
2019-05-20T15:04:36.611Z,6.30
2019-05-20T15:07:01.082Z,7.47
2019-05-20T15:09:25.568Z,7.30
2019-05-20T15:11:50.003Z,6.75
2019-05-20T15:14:14.465Z,7.17
2019-05-20T15:16:39.054Z,7.22
2019-05-20T15:19:03.504Z,7.58
2019-05-20T15:21:29.584Z,7.03
2019-05-20T15:23:54.166Z,7.93
2019-05-20T15:26:18.717Z,7.08
2019-05-20T15:28:43.158Z,7.17
2019-05-20T15:31:07.720Z,7.20
2019-05-20T15:33:32.148Z,6.97
2019-05-20T15:35:56.679Z,7.17
2019-05-20T15:38:21.117Z,8.30
2019-05-20T15:40:45.662Z,7.72
2019-05-20T15:43:10.120Z,7.37
2019-05-20T15:45:34.682Z,7.50
2019-05-20T15:47:59.409Z,7.60
2019-05-20T15:50:23.954Z,7.43
2019-05-20T15:52:50.999Z,7.83
2019-05-20T15:55:15.615Z,8.15
2019-05-20T15:57:40.165Z,7.37
2019-05-20T16:00:08.062Z,7.70
2019-05-20T16:02:32.539Z,7.60
2019-05-20T16:04:57.049Z,8.13
2019-05-20T16:07:21.533Z,7.63
2019-05-20T16:09:46.127Z,7.80
2019-05-20T16:12:10.705Z,7.43
2019-05-20T16:14:35.492Z,6.67
2019-05-20T16:16:59.941Z,7.23
2019-05-20T16:19:24.393Z,6.33
2019-05-20T16:21:48.881Z,7.20
2019-05-20T16:24:13.398Z,7.10
2019-05-20T16:26:38.004Z,7.40
2019-05-20T16:29:02.551Z,7.00
2019-05-20T16:31:27.096Z,7.23
2019-05-20T16:33:51.563Z,7.17
2019-05-20T16:36:16.018Z,7.30
2019-05-20T16:38:40.479Z,7.23
2019-05-20T16:41:05.073Z,9.80
2019-05-20T16:43:29.530Z,8.97
2019-05-20T16:45:54.045Z,9.97
2019-05-20T16:48:18.669Z,7.60
2019-05-20T16:50:43.119Z,6.90
2019-05-20T16:53:07.723Z,10.10
2019-05-20T16:55:32.253Z,9.23
2019-05-20T16:57:56.885Z,9.30
2019-05-20T17:00:31.604Z,8.47
2019-05-20T17:02:47.879Z,7.77
2019-05-20T17:05:13.780Z,12.17
2019-05-20T17:07:38.341Z,7.27
2019-05-20T17:10:03.093Z,8.57
2019-05-20T17:12:27.690Z,10.43
2019-05-20T17:14:52.221Z,8.63
2019-05-20T17:17:16.692Z,11.33
2019-05-20T17:19:41.135Z,11.40
2019-05-20T17:22:05.826Z,8.53
2019-05-20T17:24:30.271Z,7.93
2019-05-20T17:26:54.917Z,9.30
2019-05-20T17:29:19.410Z,8.30
2019-05-20T17:31:43.876Z,9.97
2019-05-20T17:34:08.408Z,10.40
2019-05-20T17:36:32.948Z,9.73
2019-05-20T17:38:57.390Z,9.97
2019-05-20T17:41:21.854Z,11.73
2019-05-20T17:43:46.341Z,12.20
2019-05-20T17:46:10.844Z,11.53
2019-05-20T17:48:35.511Z,10.87
2019-05-20T17:51:00.020Z,14.93
2019-05-20T17:53:24.494Z,18.97
2019-05-20T17:55:49.031Z,15.07
2019-05-20T17:58:13.497Z,13.13
2019-05-20T18:00:38.095Z,15.30
2019-05-20T18:03:02.657Z,12.77
2019-05-20T18:05:27.194Z,11.13
2019-05-20T18:07:51.655Z,13.73
2019-05-20T18:10:18.007Z,11.00
2019-05-20T18:12:42.489Z,10.93
2019-05-20T18:15:07.560Z,19.07
2019-05-20T18:17:32.128Z,12.10
2019-05-20T18:19:56.578Z,11.00
2019-05-20T18:22:21.055Z,11.70
2019-05-20T18:24:45.546Z,11.47
2019-05-20T18:27:10.014Z,11.50
2019-05-20T18:29:34.475Z,12.57
2019-05-20T18:31:59.063Z,12.30
2019-05-20T18:34:23.546Z,12.50
2019-05-20T18:36:48.058Z,13.20
2019-05-20T18:39:12.609Z,13.50
2019-05-20T18:41:37.130Z,13.90
2019-05-20T18:44:01.621Z,14.60
2019-05-20T18:46:26.132Z,13.53
2019-05-20T18:48:50.596Z,16.10
2019-05-20T18:51:15.054Z,14.83
2019-05-20T18:53:39.596Z,14.20
2019-05-20T18:56:04.190Z,13.43
2019-05-20T18:58:28.739Z,13.57
2019-05-20T19:00:53.261Z,13.87
2019-05-20T19:03:17.798Z,13.03
2019-05-20T19:05:42.343Z,14.83
2019-05-20T19:08:06.980Z,14.23
2019-05-20T19:10:31.672Z,12.67
2019-05-20T19:12:56.150Z,12.97
2019-05-20T19:15:20.851Z,14.03
2019-05-20T19:17:45.356Z,14.30
2019-05-20T19:20:09.947Z,14.80
2019-05-20T19:22:34.454Z,13.77
2019-05-20T19:24:58.929Z,14.33
2019-05-20T19:27:23.367Z,13.10
2019-05-20T19:29:47.922Z,12.23
2019-05-20T19:32:14.150Z,12.37
2019-05-20T19:34:38.712Z,11.60
2019-05-20T19:37:03.208Z,13.10
2019-05-20T19:39:27.898Z,12.97
2019-05-20T19:41:52.415Z,12.27
2019-05-20T19:44:16.901Z,14.00
2019-05-20T19:46:41.352Z,14.40
2019-05-20T19:49:05.949Z,13.63
2019-05-20T19:51:30.467Z,13.63
2019-05-20T19:53:55.006Z,14.10
2019-05-20T19:56:19.459Z,13.70
2019-05-20T19:58:43.945Z,14.00
2019-05-20T20:01:08.515Z,13.90
2019-05-20T20:03:33.118Z,14.80
2019-05-20T20:05:57.659Z,13.83
2019-05-20T20:08:22.133Z,15.13
2019-05-20T20:10:46.570Z,13.60
2019-05-20T20:13:11.200Z,15.97
2019-05-20T20:15:35.765Z,14.10
2019-05-20T20:18:00.207Z,15.67
2019-05-20T20:20:24.681Z,15.80
2019-05-20T20:22:49.265Z,15.03
2019-05-20T20:25:12.730Z,15.33
2019-05-20T20:27:37.192Z,14.90
2019-05-20T20:30:01.662Z,14.50
2019-05-20T20:32:37.553Z,14.17
2019-05-20T20:34:52.310Z,14.30
2019-05-20T20:37:16.824Z,13.87
2019-05-20T20:39:41.285Z,13.77
2019-05-20T20:42:05.753Z,12.97
2019-05-20T20:44:30.237Z,12.30
2019-05-20T20:46:54.685Z,12.70
2019-05-20T20:49:19.132Z,12.13
2019-05-20T20:51:43.647Z,12.67
2019-05-20T20:54:08.176Z,12.17
2019-05-20T20:56:34.337Z,12.23
2019-05-20T20:58:59.075Z,12.37
2019-05-20T21:01:23.591Z,12.47
2019-05-20T21:03:48.085Z,11.77
2019-05-20T21:06:12.694Z,11.93
2019-05-20T21:08:37.227Z,12.03
2019-05-20T21:11:01.690Z,11.97
2019-05-20T21:13:26.243Z,13.30
2019-05-20T21:15:50.709Z,12.07
2019-05-20T21:18:15.145Z,12.93
2019-05-20T21:20:39.736Z,14.03
2019-05-20T21:23:04.192Z,13.03
2019-05-20T21:25:28.790Z,14.00
2019-05-20T21:27:53.340Z,15.43
2019-05-20T21:30:19.407Z,14.83
2019-05-20T21:32:43.861Z,14.27
2019-05-20T21:35:08.654Z,14.80
2019-05-20T21:37:33.163Z,16.17
2019-05-20T21:39:57.629Z,15.17
2019-05-20T21:42:22.094Z,15.03
2019-05-20T21:44:46.678Z,15.37
2019-05-20T21:47:11.317Z,16.50
2019-05-20T21:49:35.801Z,16.00
2019-05-20T21:52:00.228Z,17.53
2019-05-20T21:54:25.466Z,16.67
2019-05-20T21:56:50.239Z,16.50
2019-05-20T21:59:14.796Z,17.20
2019-05-20T22:01:39.279Z,16.60
2019-05-20T22:04:03.859Z,17.60
2019-05-20T22:06:28.466Z,15.33
2019-05-20T22:08:52.911Z,16.67
2019-05-20T22:11:17.461Z,16.83
2019-05-20T22:13:42.014Z,16.80
2019-05-20T22:16:06.632Z,17.73
2019-05-20T22:18:31.091Z,17.77
2019-05-20T22:20:55.555Z,17.37
2019-05-20T22:23:24.726Z,16.37
2019-05-20T22:25:50.840Z,16.63
2019-05-20T22:28:15.283Z,16.57
2019-05-20T22:30:39.831Z,16.80
2019-05-20T22:33:04.289Z,17.60
2019-05-20T22:35:28.834Z,17.83
2019-05-20T22:37:53.277Z,18.40
2019-05-20T22:40:17.904Z,17.90
2019-05-20T22:42:42.391Z,18.20
2019-05-20T22:45:06.991Z,18.13
2019-05-20T22:47:31.471Z,17.03
2019-05-20T22:49:55.950Z,18.23
2019-05-20T22:52:20.426Z,18.23
2019-05-20T22:54:44.873Z,19.30
2019-05-20T22:57:09.343Z,19.20
2019-05-20T22:59:33.798Z,19.03
2019-05-20T23:01:58.329Z,19.37
2019-05-20T23:04:22.783Z,18.93
2019-05-20T23:06:47.366Z,21.10
2019-05-20T23:09:14.768Z,20.30
2019-05-20T23:11:37.954Z,19.03
2019-05-20T23:14:02.505Z,19.97
2019-05-20T23:16:26.992Z,19.30
2019-05-20T23:18:51.433Z,18.73
2019-05-20T23:21:15.907Z,20.03
2019-05-20T23:23:40.421Z,19.80
2019-05-20T23:26:04.883Z,19.60
2019-05-20T23:28:29.358Z,19.23
2019-05-20T23:30:53.795Z,19.20
2019-05-20T23:33:18.383Z,19.10
2019-05-20T23:35:42.866Z,19.20
2019-05-20T23:38:07.399Z,18.60
2019-05-20T23:40:31.866Z,19.30
2019-05-20T23:42:56.346Z,18.57
2019-05-20T23:45:20.951Z,18.60
2019-05-20T23:47:45.467Z,18.97
2019-05-20T23:50:10.396Z,19.37
2019-05-20T23:52:34.861Z,20.50
2019-05-20T23:54:59.487Z,19.60
2019-05-20T23:57:23.968Z,19.53
2019-05-20T23:59:48.480Z,19.27
